Gifford, IL (61847)

7:27 AM CDT on September 23, 2014 (GMT -0500)
Flatville | Change Station
CLOSE
Current Station
Personal Weather Station
Location: Thomasboro, IL
Elevation: 686 ft
Nearby Weather Stations

Elev 686 ft 40.24 °N, 88.06 °W | Updated 2 minutes ago

Clear
Clear
43.7 °F
Feels Like 44 °F
N
0.0
Wind Variable Wind from ESE
Gusts 0.0 mph

Today
High -- | Low -- °F
--% Chance of Precip.
Yesterday
High -- | Low -- °F
Precip. -- in
6:40 AM 6:47 PM
Waning Crescent, 1% visible
Pressure 30.34 in
Visibility 5.0 miles
Clouds Clear
Windchill 44 °F
Dew Point 43 °F
Humidity 96%
Rainfall 0.00 in
Snow Depth Not available.
UV 0 out of 12
Pollen 4.50 out of 12
Air Quality Not available.
Flu Activity Not available.
METAR KTIP 231210Z AUTO 00000KT 5SM BR CLR 08/06 A3034 RMK AO2 T00790063

More Conditions Fewer Conditions

Pressure 30.34 in
Visibility 5.0 miles
Clouds Clear
Windchill 44 °F
Dew Point 43 °F
Humidity 96%
Rainfall 0.00 in
Snow Depth Not available.
UV 0 out of 12
Pollen 4.50 out of 12
Air Quality Not available.
Flu Activity Not available.
METAR KTIP 231210Z AUTO 00000KT 5SM BR CLR 08/06 A3034 RMK AO2 T00790063

More Conditions Fewer Conditions

10-Day Weather Forecast

Almanac

Astronomy

Sep. 23, 2014 Rise Set
Actual Time 6:40 AM CDT 6:47 PM CDT
Civil Twilight 6:13 AM CDT 7:14 PM CDT
Nautical Twilight 5:41 AM CDT 7:46 PM CDT
Astronomical Twilight 5:09 AM CDT 8:18 PM CDT
Moon 6:04 AM CDT 6:26 PM CDT
Length of Visible Light 13h 01m
Length of Day
12h 06m
Tomorrow will be 2m 38s shorter.
Waning Crescent, 1% of the Moon is Illuminated
Today
Waning Crescent
Sep 24
New
Oct 1
First Quarter
Oct 8
Full
Oct 15
Last Quarter

Today's Extremes

State Highs State Lows

Community

WunderPhotos

Upload Photos

1,755,659 photos uploaded!

WunderBlogs® & News

Nearby

Snow Depth

Station Depth Elevation
No new snow has been reported.

Earthquake Activity

City Distance Mag. Time & Date
No recent earthquake activity has been reported nearby.
Minimum magnitude displayed is 2.5.

Coastal Water Temperatures

Place Temperature
No Stations Reporting

Nearby Weather Stations